Soaring Guidance
Issued by NWS Reno, NV

Home | Current Version | Previous Version | Text Only | Print | Product List | Glossary On
Versions: 1 2 3 4 5 6 7
000
UXUS97 KREV 051351
SRGREV

SOARING FORECAST
NATIONAL WEATHER SERVICE - RENO NV
700 AM PDT THU MAY 5 2016

THIS SOARING FORECAST IS FOR THE EASTERN SIERRA AND WESTERN NEVADA
WITH SPECIFIC INDICES FOR THE GREATER RENO AREA.

THIS FORECAST IS PREPARED DAILY BY 700 AM AND IS NOT UPDATED.

FOR CURRENT FLIGHT CONDITIONS...FORECASTS...AND ADVISORIES...ACCESS
YOUR LOCAL BRIEFING OUTLET OR FLIGHT SERVICE STATION.

*******************************************************************
FORECASTED LOCAL INDICES FOR RENO:        TODAY     YESTERDAY
FORECASTED MAX TEMP AT RENO (DEG F).....     72          73
FORECASTED TRIGGER TEMPERATURE (DEG F)..     64          64
   EXCEEDED YESTERDAY BY 1155 AM PDT
FORECASTED MAXIMUM ALTITUDE (FT MSL)....  15000       15000
FORECASTED SOARING INDEX (FPM)..........    930         930
FORECASTED K-INDEX.........VALID 18Z....     27          21
FORECASTED K-INDEX.........VALID 00Z....     31          24
FORECASTED LIFTED INDEX....VALID 18Z....      0           1
FORECASTED LIFTED INDEX....VALID 00Z....     -1           0

AFTERNOON WINDS ALOFT FORECAST
MSL (FT) WIND/TEMP
9000  3009/+01
10000 1708/-01
12000 1107/-05
14000 1212/-09
16000 1318/-13
18000 1436/-18
24000 1531/-31
30000 1007/-48
34000 1627/-54
39000 1634/-52

SLIDE MOUNTAIN DATA:
     DATE       TIME     TEMP  DEWPT   RH         WIND (MPH)
                        (F)   (F)           | DIR  SPEED GUST
2016-05-05    05:30      32    28     87    | 246   14   32
2016-05-05    05:20      33    27     84    | 289    6   15
2016-05-05    05:00      34    26     80    | 283   11   15
2016-05-05    04:50      35    26     75    | 272    4    9

RENO TAF FORECAST:
KRNO 051325Z 0513/0612 VRB06G15KT P6SM -SHRA VCTS SCT060CB BKN090
      TEMPO 0513/0514 P6SM -TSRA BKN050CB OVC090
     FM051600 30009KT P6SM -SHRA SCT050 OVC090
      TEMPO 0520/0523 5SM -TSRA BKN040CB
     FM060000 30012G20KT P6SM -RA BKN070 OVC100
     FM060700 32005KT P6SM VCSH BKN070 OVC100

CARSON CITY TAF FORECAST:
KCXP 051325Z 0513/0612 VRB04KT P6SM VCTS BKN070CB OVC110
     FM051500 VRB04KT P6SM VCSH BKN070 OVC140
     FM051900 VRB04KT P6SM -SHRA VCTS BKN040CB OVC070
     FM060000 28008KT P6SM -RA BKN040 OVC100
     FM060600 VRB04KT P6SM VCSH BKN070 OVC100

OUTLOOK FOR THE RENO-CARSON CITY-MINDEN AREA:
.FRIDAY...SCATTERED SHOWERS IN THE MORNING...THEN SHOWERS AND
CHANCE OF THUNDERSTORMS IN THE AFTERNOON. HIGHS 62 TO 67.
NORTHWEST WINDS AROUND 10 MPH.

SUNRISE AND SUNSET
MAY  5 2016...........SUNRISE   555 AM PDT   SUNSET   757 PM PDT
MAY  6 2016...........SUNRISE   554 AM PDT   SUNSET   758 PM PDT



USA.gov is the U.S. government's official web portal to all federal, state and local government web resources and services.